# Land Stadt Wetter Temperatur Luftdruck Luftfeuchtigkeit Sichtweite Windgeschwindigkeit Windrichtung Ortszeit
1 gl Nuuk -273 0 0 0 0 0 02.08.2018 14:22
2 ru Surgut Snow 0 982 97 1500 22 170 02.08.2018 14:23
3 no Hammerfest Clouds 1 996 81 10000 15 230 02.08.2018 14:22
4 fj Suva Clouds 27 999 83 10000 17 290 02.08.2018 14:21
5 us New York Clouds 12 1002 71 16093 16 228 02.08.2018 14:22
6 ar Ushuaia Clouds 16 1003 55 10000 39 320 02.08.2018 14:22
7 ca Montreal Clear 1 1005 81 14484 17 30 02.08.2018 14:22
8 us Chicago Mist 13 1006 93 9656 15 110 02.08.2018 14:23
9 fi Rovaniemi Clouds 3 1007 69 10000 24 230 02.08.2018 14:21
10 pg Port Moresby Clouds 31 1007 66 10000 24 150 02.08.2018 14:21
11 sb Honiara Clouds 30 1007 66 10000 8 360 02.08.2018 14:22
12 au Darwin Clouds 32 1008 59 10000 11 350 02.08.2018 14:22
13 nz Wellington Clouds 14 1008 82 10000 11 20 02.08.2018 14:23
14 th Bangkok Clouds 35 1009 50 10000 22 200 02.08.2018 14:21
15 id Jakarta Rain 32 1009 70 6000 9 250 02.08.2018 14:22
16 ph Manila Clouds 35 1009 50 10000 13 0 02.08.2018 14:21
17 mx Veracruz Clouds 26 1010 100 0 3 204 02.08.2018 14:21
18 au Perth Clear 31 1010 31 10000 21 290 02.08.2018 14:21
19 jp Tokio Clouds 20 1010 42 10000 21 160 02.08.2018 14:22
20 ru Amderma Clouds -11 1010 94 0 3 110 02.08.2018 14:23
21 iq Bagdad Clouds 26 1011 41 10000 15 10 02.08.2018 14:22
22 br Manaus Rain 27 1011 94 10000 5 110 02.08.2018 14:21
23 cd Kisangani Rain 25 1011 77 0 4 143 02.08.2018 14:23
24 qa Doha Clear 35 1011 11 10000 21 160 02.08.2018 14:23
25 in Nagpur Haze 36 1012 15 5000 13 280 02.08.2018 14:21
26 ec San Cristobal Rain 27 1012 83 0 9 55 02.08.2018 14:22
27 ae Dubai Clear 30 1012 31 10000 5 180 02.08.2018 14:21
28 ru Moskau Rain 10 1013 39 10000 11 270 02.08.2018 14:22
29 ck Avarua Clouds 28 1013 74 10000 11 60 02.08.2018 14:22
30 mv Male Clouds 32 1013 66 10000 9 280 02.08.2018 14:23
31 cn Lhasa Clear 9 1013 10 0 10 187 02.08.2018 14:22
32 in Mumbai Smoke 31 1013 62 5000 15 270 02.08.2018 14:22
33 cl Santiago Clear 14 1013 54 10000 5 140 02.08.2018 14:23
34 ru Anadyr Clouds -16 1013 71 10000 7 170 02.08.2018 14:23
35 is Reykjavik Clear -5 1014 73 10000 4 130 02.08.2018 14:22
36 br Rio de Janeiro Clouds 22 1014 88 6000 9 180 02.08.2018 14:22
37 do Santo Domingo Clouds 24 1014 94 10000 8 30 02.08.2018 14:21
38 us Las Vegas Clear 12 1015 62 16093 8 200 02.08.2018 14:21
39 us Fairbanks Clear -9 1015 61 16093 11 70 02.08.2018 14:23
40 us Miami Clouds 25 1015 83 16093 5 140 02.08.2018 14:23
41 vn Hanoi Mist 23 1015 73 5000 9 270 02.08.2018 14:21
42 sa Riad Dust 33 1015 26 500 8 170 02.08.2018 14:21
43 us Honolulu Clouds 23 1016 69 16093 5 280 02.08.2018 14:22
44 us Nome Clear -19 1016 83 16093 3 268 02.08.2018 14:23
45 tr Alanya Clouds 13 1016 58 10000 18 310 02.08.2018 14:22
46 jp Nagasaki Clear 18 1016 48 10000 22 340 02.08.2018 14:21
47 bs Nassau Clouds 23 1016 83 10000 8 150 02.08.2018 14:22
48 us Denver Clouds 9 1016 31 16093 12 266 02.08.2018 14:21
49 us Death Valley Rain 2 1017 91 0 5 220 02.08.2018 14:22
50 us Los Angeles Rain 10 1017 81 16093 5 110 02.08.2018 14:22
51 eg Kairo Mist 18 1017 68 4000 7 298 02.08.2018 14:22
52 us Tucson Clear 16 1017 39 16093 8 100 02.08.2018 14:21
53 au Alice Springs Clouds 24 1017 29 10000 22 130 02.08.2018 14:21
54 kr Seoul Clear 14 1017 19 10000 8 310 02.08.2018 14:21
55 cn Shanghai Clouds 22 1018 20 10000 11 130 02.08.2018 14:21
56 ma Casablanca Mist 16 1018 100 3000 5 360 02.08.2018 14:23
57 mn Uliastai Clear 5 1018 31 0 3 340 02.08.2018 14:23
58 ru Werchojansk Clouds 3 1018 84 0 20 271 02.08.2018 14:22
59 ma Marrakesch Clouds 18 1018 63 0 4 0 02.08.2018 14:23
60 in Jagatsukh Clouds 14 1019 17 0 9 203 02.08.2018 14:22
61 es Tarifa Clouds 16 1019 82 10000 31 80 02.08.2018 14:21
62 ad Andorra la Vella Clouds 7 1019 89 0 4 42 02.08.2018 14:22
63 es Las Palmas de Gran Canaria Clouds 19 1019 88 10000 28 20 02.08.2018 14:21
64 ar Esquel Clear 3 1020 93 10000 2 0 02.08.2018 14:22
65 tr Ankara Clouds 7 1020 30 10000 30 60 02.08.2018 14:23
66 cn Peking Clear 18 1020 16 10000 11 170 02.08.2018 14:23
67 af Kabul Clouds 16 1021 59 10000 11 90 02.08.2018 14:21
68 no Oslo Clouds 6 1021 69 10000 24 180 02.08.2018 14:23
69 pt Lissabon Fog 15 1021 100 500 5 60 02.08.2018 14:22
70 za Kapstadt Clouds 14 1021 71 10000 2 0 02.08.2018 14:22
71 gr Athen Clouds 12 1021 43 10000 22 340 02.08.2018 14:22
72 es Sevilla Mist 14 1021 93 4000 5 360 02.08.2018 14:22
73 mn Ulaanbaatar Clouds 11 1021 11 10000 14 270 02.08.2018 14:23
74 bo Potisi Clouds 6 1021 29 0 6 349 02.08.2018 14:22
75 pe Cusco Clouds 10 1022 29 0 2 320 02.08.2018 14:23
76 au Sydney Clouds 18 1022 77 10000 21 170 02.08.2018 14:22
77 ru Jakutsk Clouds 10 1023 25 10000 11 290 02.08.2018 14:22
78 uy Montevideo Clouds 14 1023 58 10000 17 200 02.08.2018 14:22
79 fr Bordeaux Clouds 13 1023 76 10000 9 120 02.08.2018 14:21
80 ke Nairobi Clouds 19 1024 88 10000 9 360 02.08.2018 14:22
81 fi Helsinki Clear 6 1024 76 10000 11 280 02.08.2018 14:21
82 fr Paris Clouds 11 1024 81 10000 4 30 02.08.2018 14:22
83 mg Antananarivo Clouds 22 1024 73 10000 11 120 02.08.2018 14:21
84 es Madrid Clouds 12 1024 87 10000 2 0 02.08.2018 14:23
85 gb Glasgow Clouds 8 1024 81 10000 17 220 02.08.2018 14:21
86 it Palermo Clear 14 1024 66 10000 9 240 02.08.2018 14:22
87 ie Dublin Clouds 6 1025 75 10000 4 0 02.08.2018 14:21
88 tr Istanbul Clouds 10 1025 61 10000 33 50 02.08.2018 14:23
89 se Stockholm Clouds 7 1025 70 10000 13 210 02.08.2018 14:23
90 gb London Clouds 10 1025 71 10000 6 65 02.08.2018 14:22
91 it Rom Clear 12 1026 93 10000 5 0 02.08.2018 14:23
92 de Köln Clear 13 1026 62 10000 5 110 02.08.2018 14:21
93 fr Nizza Clear 14 1026 50 10000 18 330 02.08.2018 14:22
94 de Emden Clouds 11 1026 53 10000 9 150 02.08.2018 14:21
95 de Stuttgart Clear 9 1026 62 10000 2 0 02.08.2018 14:22
96 de Trier Clear 12 1026 66 10000 13 50 02.08.2018 14:21
97 de Freiburg Clear 10 1026 62 10000 4 0 02.08.2018 14:22
98 es Barcelona Clouds 12 1026 71 10000 15 320 02.08.2018 14:22
99 gb Manchester Clouds 9 1026 87 10000 4 150 02.08.2018 14:21
100 de München Clear 8 1026 70 10000 4 0 02.08.2018 14:21
101 ar Buenos Aires Clear 10 1026 62 10000 9 160 02.08.2018 14:22
102 es Palma de Mallorca Clear 13 1026 62 10000 4 0 02.08.2018 14:22
103 ua Kiew Clear 13 1027 24 10000 22 270 02.08.2018 14:21
104 de Kassel Clear 11 1027 71 10000 2 0 02.08.2018 14:21
105 de Helgoland Clouds 10 1027 57 10000 15 120 02.08.2018 14:22
106 de Nürnberg Clear 10 1027 53 10000 4 330 02.08.2018 14:21
107 ch Bern Clear 8 1027 75 10000 4 0 02.08.2018 14:23
108 de Oberstdorf Clear 8 1027 81 10000 2 0 02.08.2018 14:21
109 de Bremen Clouds 11 1027 57 10000 17 140 02.08.2018 14:22
110 de Frankfurt Clear 12 1027 62 10000 11 20 02.08.2018 14:22
111 at Innsbruck Clear 8 1028 57 10000 9 290 02.08.2018 14:23
112 it Mailand Clear 13 1028 58 10000 4 10 02.08.2018 14:21
113 mx Mexiko Stadt Clear 16 1028 45 16093 5 260 02.08.2018 14:21
114 ch Andermatt Clouds 7 1028 38 10000 4 130 02.08.2018 14:23
115 de Flensburg Clouds 8 1028 87 0 9 140 02.08.2018 14:21
116 de Braunschweig Clear 11 1028 62 10000 9 120 02.08.2018 14:21
117 de Hamburg Clouds 10 1028 50 10000 17 130 02.08.2018 14:21
118 de Hannover Clear 11 1028 66 10000 13 90 02.08.2018 14:21
119 de Torfhaus Clear 11 1028 62 10000 9 120 02.08.2018 14:22
120 bg Warna Clear 9 1029 43 10000 17 30 02.08.2018 14:21
121 de Dresden Clear 12 1029 54 10000 9 130 02.08.2018 14:22
122 et Addis Abeba Clouds 20 1029 40 10000 17 90 02.08.2018 14:23
123 de Magdeburg Clear 10 1029 66 0 6 83 02.08.2018 14:22
124 at Wien Clear 10 1030 27 10000 18 130 02.08.2018 14:22
125 bg Sofia Clear 2 1030 60 10000 4 0 02.08.2018 14:21
126 de Berlin Clear 11 1030 50 10000 17 110 02.08.2018 14:21
127 de Hiddensee Clouds 9 1034 79 0 2 157 02.08.2018 14:21
128 bo La Paz Clouds 2 1040 93 10000 5 81 02.08.2018 14:22